Time;durP1;ratioP1;P1;durP2;ratioP2;P2;SDS_P1;SDS_P2;PMS_P1;PMS_P2;Temp;Humidity;BMP_temperature;BMP_pressure;BME280_temperature;BME280_humidity;BME280_pressure;Samples;Min_cycle;Max_cycle;Signal;HPM_P1;HPM_P2
2022/03/10 00:02:25;;;;;;;32.57;11.53;;;;;;;;;;5015282;28;20839;-48
2022/03/10 00:04:51;;;;;;;28.37;12.67;;;;;;;;;;5013376;28;20422;-49
2022/03/10 00:07:19;;;;;;;26.10;12.60;;;;;;;;;;5014572;28;20432;-47
2022/03/10 00:09:45;;;;;;;21.80;11.02;;;;;;;;;;5013828;28;20454;-46
2022/03/10 00:12:11;;;;;;;20.47;11.70;;;;;;;;;;5014522;28;20188;-46
2022/03/10 00:14:37;;;;;;;24.73;12.73;;;;;;;;;;5014477;28;20396;-46
2022/03/10 00:17:03;;;;;;;24.47;12.23;;;;;;;;;;5014878;28;20211;-46
2022/03/10 00:19:29;;;;;;;20.50;11.10;;;;;;;;;;5014071;28;20460;-47
2022/03/10 00:21:55;;;;;;;21.60;11.90;;;;;;;;;;5014239;28;20676;-48
2022/03/10 00:24:21;;;;;;;21.10;10.47;;;;;;;;;;5014187;28;20812;-49
2022/03/10 00:26:49;;;;;;;21.40;12.20;;;;;;;;;;5014282;28;20417;-47
2022/03/10 00:29:16;;;;;;;23.27;12.43;;;;;;;;;;5013996;28;20446;-46
2022/03/10 00:31:42;;;;;;;22.55;12.43;;;;;;;;;;5013843;28;20184;-46
2022/03/10 00:34:09;;;;;;;21.02;11.43;;;;;;;;;;5014092;28;20195;-46
2022/03/10 00:36:35;;;;;;;16.48;11.00;;;;;;;;;;5014233;28;20184;-46
2022/03/10 00:39:01;;;;;;;21.42;12.57;;;;;;;;;;5014177;28;20168;-47
2022/03/10 00:41:27;;;;;;;26.00;12.65;;;;;;;;;;5014363;28;20192;-47
2022/03/10 00:43:53;;;;;;;22.75;12.55;;;;;;;;;;5013895;28;20586;-46
2022/03/10 00:46:19;;;;;;;26.83;13.10;;;;;;;;;;5013880;28;20172;-48
2022/03/10 00:48:45;;;;;;;24.63;12.10;;;;;;;;;;5013789;28;20977;-46
2022/03/10 00:51:11;;;;;;;17.37;11.10;;;;;;;;;;5013506;28;20439;-46
2022/03/10 00:53:37;;;;;;;24.53;12.37;;;;;;;;;;5013668;28;20395;-50
2022/03/10 00:56:03;;;;;;;25.70;11.37;;;;;;;;;;5013629;28;20408;-49
2022/03/10 00:58:30;;;;;;;25.23;11.90;;;;;;;;;;5013685;28;20414;-51
2022/03/10 01:00:56;;;;;;;24.08;12.25;;;;;;;;;;5013354;28;20184;-50
2022/03/10 01:03:24;;;;;;;18.53;11.50;;;;;;;;;;4977169;28;1064528;-50
2022/03/10 01:05:52;;;;;;;17.02;10.50;;;;;;;;;;5014696;28;20408;-49
2022/03/10 01:08:18;;;;;;;24.73;13.55;;;;;;;;;;5014246;28;20202;-49
2022/03/10 01:13:47;;;;;;;21.25;12.32;;;;;;;;;;5014702;28;20371;-51
2022/03/10 01:16:13;;;;;;;19.80;12.10;;;;;;;;;;5014426;28;20164;-49
2022/03/10 01:18:39;;;;;;;17.03;11.77;;;;;;;;;;5014484;28;20891;-49
2022/03/10 01:21:05;;;;;;;23.00;12.20;;;;;;;;;;5014178;28;20912;-49
2022/03/10 01:23:31;;;;;;;21.80;11.10;;;;;;;;;;5014274;28;20399;-49
2022/03/10 01:25:57;;;;;;;31.03;12.40;;;;;;;;;;5014735;28;20938;-48
2022/03/10 01:28:23;;;;;;;19.03;11.53;;;;;;;;;;5014214;28;20828;-49
2022/03/10 01:30:49;;;;;;;14.80;11.10;;;;;;;;;;5013998;28;20415;-47
2022/03/10 01:33:15;;;;;;;23.92;12.77;;;;;;;;;;5014157;28;20395;-48
2022/03/10 01:35:41;;;;;;;20.27;11.93;;;;;;;;;;5014198;28;20165;-47
2022/03/10 01:38:07;;;;;;;20.53;11.67;;;;;;;;;;5014098;28;20173;-49
2022/03/10 01:40:33;;;;;;;21.87;12.93;;;;;;;;;;5013745;28;20419;-47
2022/03/10 01:42:59;;;;;;;17.30;11.53;;;;;;;;;;5013951;28;20405;-47
2022/03/10 01:45:25;;;;;;;18.98;11.20;;;;;;;;;;5013973;28;20399;-47
2022/03/10 01:47:52;;;;;;;17.67;10.98;;;;;;;;;;5014122;28;20161;-48
2022/03/10 01:50:18;;;;;;;22.17;12.25;;;;;;;;;;5013595;28;20274;-48
2022/03/10 01:52:45;;;;;;;16.77;11.80;;;;;;;;;;5013831;28;20165;-48
2022/03/10 01:55:11;;;;;;;23.08;12.40;;;;;;;;;;5013739;28;20247;-47
2022/03/10 01:57:37;;;;;;;24.42;12.55;;;;;;;;;;5013815;28;20172;-47
2022/03/10 02:00:04;;;;;;;27.10;12.90;;;;;;;;;;5013464;28;20196;-47
2022/03/10 02:02:31;;;;;;;24.95;12.00;;;;;;;;;;5013005;28;20426;-48
2022/03/10 02:04:56;;;;;;;25.00;12.53;;;;;;;;;;5013057;28;20218;-49
2022/03/10 02:10:16;;;;;;;22.23;12.15;;;;;;;;;;5013432;28;20548;-50
2022/03/10 02:12:42;;;;;;;23.70;12.02;;;;;;;;;;5013521;28;20226;-49
2022/03/10 02:17:57;;;;;;;26.70;10.77;;;;;;;;;;5013302;28;20200;-49
2022/03/10 02:20:23;;;;;;;21.73;11.40;;;;;;;;;;5012208;28;20192;-49
2022/03/10 02:22:49;;;;;;;17.13;10.95;;;;;;;;;;5013359;28;20403;-49
2022/03/10 02:25:16;;;;;;;25.20;12.85;;;;;;;;;;5013216;28;20176;-49
2022/03/10 02:27:42;;;;;;;19.00;11.30;;;;;;;;;;5013269;28;20640;-49
2022/03/10 02:30:08;;;;;;;23.70;12.30;;;;;;;;;;5012772;28;20218;-49
2022/03/10 02:32:34;;;;;;;30.65;13.50;;;;;;;;;;5012996;28;20406;-49
2022/03/10 02:35:00;;;;;;;24.80;12.83;;;;;;;;;;5013037;28;20165;-49
2022/03/10 02:37:26;;;;;;;24.48;14.23;;;;;;;;;;5013031;28;20399;-49
2022/03/10 02:39:52;;;;;;;21.00;13.00;;;;;;;;;;5012795;28;20516;-49
2022/03/10 02:42:18;;;;;;;22.03;12.30;;;;;;;;;;5012906;28;20469;-49
2022/03/10 02:44:45;;;;;;;22.47;12.60;;;;;;;;;;5012889;28;20465;-49
2022/03/10 02:47:11;;;;;;;23.45;11.60;;;;;;;;;;5012783;28;20402;-49
2022/03/10 02:49:38;;;;;;;20.90;11.70;;;;;;;;;;5012534;28;20565;-49
2022/03/10 02:52:04;;;;;;;24.10;11.57;;;;;;;;;;5012694;28;20395;-49
2022/03/10 02:54:30;;;;;;;19.73;11.75;;;;;;;;;;5012893;28;20172;-49
2022/03/10 02:56:57;;;;;;;25.65;12.73;;;;;;;;;;5012784;28;20223;-47
2022/03/10 02:59:23;;;;;;;21.15;10.85;;;;;;;;;;5012539;28;20172;-47
2022/03/10 03:01:49;;;;;;;17.77;12.00;;;;;;;;;;5012526;28;20192;-47
2022/03/10 03:04:15;;;;;;;19.80;11.02;;;;;;;;;;5012647;28;20518;-46
2022/03/10 03:06:41;;;;;;;13.67;9.53;;;;;;;;;;5012691;28;20599;-47
2022/03/10 03:09:07;;;;;;;19.00;12.10;;;;;;;;;;5012809;28;20450;-46
2022/03/10 03:11:33;;;;;;;17.13;11.13;;;;;;;;;;5012380;28;20495;-47
2022/03/10 03:14:01;;;;;;;22.30;10.90;;;;;;;;;;5012502;28;20259;-47
2022/03/10 03:16:27;;;;;;;19.80;11.25;;;;;;;;;;5012435;28;20407;-49
2022/03/10 03:18:53;;;;;;;22.88;12.27;;;;;;;;;;5012457;28;20198;-49
2022/03/10 03:21:19;;;;;;;26.43;10.83;;;;;;;;;;5012262;28;20236;-46
2022/03/10 03:23:45;;;;;;;19.85;11.80;;;;;;;;;;5012479;28;20951;-46
2022/03/10 03:26:11;;;;;;;21.20;11.50;;;;;;;;;;5012432;28;20263;-46
2022/03/10 03:28:37;;;;;;;18.25;10.75;;;;;;;;;;5012166;28;20959;-46
2022/03/10 03:31:03;;;;;;;23.63;12.53;;;;;;;;;;5011735;28;20188;-47
2022/03/10 03:33:30;;;;;;;20.02;11.15;;;;;;;;;;5012247;28;20395;-46
2022/03/10 03:35:56;;;;;;;20.40;11.73;;;;;;;;;;5012224;28;20172;-46
2022/03/10 03:38:22;;;;;;;25.23;12.70;;;;;;;;;;5012206;28;20175;-46
2022/03/10 03:40:48;;;;;;;20.90;12.82;;;;;;;;;;5011893;28;20683;-46
2022/03/10 03:43:14;;;;;;;17.80;10.07;;;;;;;;;;5011930;28;20196;-48
2022/03/10 03:45:40;;;;;;;21.50;11.70;;;;;;;;;;5012025;28;20531;-46
2022/03/10 03:48:06;;;;;;;19.67;10.67;;;;;;;;;;5012214;28;20172;-46
2022/03/10 03:50:32;;;;;;;21.30;10.87;;;;;;;;;;5011749;28;21038;-47
2022/03/10 03:52:58;;;;;;;22.17;12.23;;;;;;;;;;5012133;28;20412;-46
2022/03/10 03:55:24;;;;;;;22.53;11.73;;;;;;;;;;5012206;28;20462;-49
2022/03/10 03:57:50;;;;;;;17.20;10.55;;;;;;;;;;5011851;28;20782;-50
2022/03/10 04:00:16;;;;;;;19.77;11.23;;;;;;;;;;5011780;28;20299;-47
2022/03/10 04:02:43;;;;;;;20.13;11.80;;;;;;;;;;5011845;28;20457;-46
2022/03/10 04:05:09;;;;;;;25.77;11.70;;;;;;;;;;5012026;28;20172;-47
2022/03/10 04:07:36;;;;;;;17.45;11.68;;;;;;;;;;5011865;28;20172;-49
2022/03/10 04:10:02;;;;;;;20.25;10.77;;;;;;;;;;5011577;28;20200;-47
2022/03/10 04:12:28;;;;;;;19.67;11.40;;;;;;;;;;5011826;28;20176;-47
2022/03/10 04:14:54;;;;;;;18.77;11.10;;;;;;;;;;5011717;28;20246;-47
2022/03/10 04:17:21;;;;;;;17.30;11.10;;;;;;;;;;5011783;28;20399;-48
2022/03/10 04:19:47;;;;;;;17.83;12.35;;;;;;;;;;5011502;28;20853;-47
2022/03/10 04:22:13;;;;;;;24.97;12.60;;;;;;;;;;5011871;28;20247;-47
2022/03/10 04:24:39;;;;;;;26.27;13.50;;;;;;;;;;5011649;28;20407;-48
2022/03/10 04:27:05;;;;;;;19.37;12.97;;;;;;;;;;5011628;28;20403;-49
2022/03/10 04:29:31;;;;;;;23.00;12.57;;;;;;;;;;5011535;28;21025;-46
2022/03/10 04:31:57;;;;;;;20.23;11.48;;;;;;;;;;5011649;28;20942;-49
2022/03/10 04:34:23;;;;;;;23.07;12.07;;;;;;;;;;5011622;28;20211;-46
2022/03/10 04:36:49;;;;;;;21.60;13.00;;;;;;;;;;5011662;28;20403;-46
2022/03/10 04:39:15;;;;;;;21.03;13.67;;;;;;;;;;5011494;28;20177;-46
2022/03/10 04:41:42;;;;;;;23.10;15.07;;;;;;;;;;5011268;28;20427;-47
2022/03/10 04:44:08;;;;;;;39.50;17.17;;;;;;;;;;5014974;28;20789;-46
2022/03/10 04:46:34;;;;;;;28.25;13.98;;;;;;;;;;5015185;28;20555;-46
2022/03/10 04:48:59;;;;;;;26.40;12.83;;;;;;;;;;5014981;28;20214;-47
2022/03/10 04:51:25;;;;;;;22.03;12.10;;;;;;;;;;5014843;28;20412;-49
2022/03/10 04:53:51;;;;;;;20.30;11.63;;;;;;;;;;5014832;28;20770;-47
2022/03/10 04:56:17;;;;;;;27.63;13.20;;;;;;;;;;5014726;28;20434;-50
2022/03/10 04:58:43;;;;;;;17.77;11.60;;;;;;;;;;5014889;28;20638;-47
2022/03/10 05:01:11;;;;;;;18.47;11.23;;;;;;;;;;5014535;28;20423;-46
2022/03/10 05:03:36;;;;;;;23.10;11.30;;;;;;;;;;5014679;28;20459;-46
2022/03/10 05:06:03;;;;;;;18.67;10.90;;;;;;;;;;5014783;28;20595;-47
2022/03/10 05:08:29;;;;;;;18.80;10.35;;;;;;;;;;5014586;28;20439;-46
2022/03/10 05:10:55;;;;;;;20.50;12.03;;;;;;;;;;5014304;28;20211;-46
2022/03/10 05:13:21;;;;;;;21.65;12.10;;;;;;;;;;5014525;28;20400;-47
2022/03/10 05:15:47;;;;;;;28.25;11.45;;;;;;;;;;5014551;28;20172;-47
2022/03/10 05:18:13;;;;;;;19.15;11.13;;;;;;;;;;5014548;28;20169;-49
2022/03/10 05:20:39;;;;;;;18.50;11.57;;;;;;;;;;5014106;28;20188;-46
2022/03/10 05:23:06;;;;;;;18.20;11.00;;;;;;;;;;5014475;28;20414;-46
2022/03/10 05:25:36;;;;;;;18.80;12.13;;;;;;;;;;5014320;28;20411;-46
2022/03/10 05:28:02;;;;;;;19.40;11.93;;;;;;;;;;5014352;28;20180;-46
2022/03/10 05:30:28;;;;;;;23.63;12.70;;;;;;;;;;5013923;28;20196;-46
2022/03/10 05:32:54;;;;;;;20.58;10.57;;;;;;;;;;5014257;28;20165;-46
2022/03/10 05:35:20;;;;;;;26.20;11.63;;;;;;;;;;5014193;28;20527;-46
2022/03/10 05:37:48;;;;;;;19.58;11.52;;;;;;;;;;5014271;28;20395;-46
2022/03/10 05:40:18;;;;;;;20.40;10.57;;;;;;;;;;5013954;28;20552;-47
2022/03/10 05:42:45;;;;;;;15.70;9.70;;;;;;;;;;5014239;28;20176;-46
2022/03/10 05:45:11;;;;;;;18.88;11.40;;;;;;;;;;5014123;28;20599;-46
2022/03/10 05:47:38;;;;;;;18.20;10.40;;;;;;;;;;5013954;28;20537;-46
2022/03/10 05:50:04;;;;;;;20.65;12.80;;;;;;;;;;5013695;28;20230;-46
2022/03/10 05:52:31;;;;;;;20.45;11.20;;;;;;;;;;5013750;28;20203;-51
2022/03/10 05:54:57;;;;;;;19.38;10.52;;;;;;;;;;5012730;28;20211;-50
2022/03/10 05:57:23;;;;;;;24.70;12.23;;;;;;;;;;5013782;28;20168;-46
2022/03/10 05:59:49;;;;;;;20.05;11.57;;;;;;;;;;5013468;28;20548;-46
2022/03/10 06:02:18;;;;;;;20.53;10.70;;;;;;;;;;5013651;28;20169;-46
2022/03/10 06:04:45;;;;;;;15.50;9.85;;;;;;;;;;5013756;28;20442;-47
2022/03/10 06:07:11;;;;;;;16.83;9.80;;;;;;;;;;5013528;28;20227;-46
2022/03/10 06:09:37;;;;;;;18.00;11.13;;;;;;;;;;5013154;28;20196;-47
2022/03/10 06:12:03;;;;;;;20.57;11.70;;;;;;;;;;5013525;28;20533;-46
2022/03/10 06:14:29;;;;;;;21.52;12.52;;;;;;;;;;5013523;28;20415;-46
2022/03/10 06:16:55;;;;;;;22.03;13.47;;;;;;;;;;5013608;28;20160;-48
2022/03/10 06:19:21;;;;;;;20.00;11.38;;;;;;;;;;5013156;28;20771;-52
2022/03/10 06:21:47;;;;;;;25.08;12.65;;;;;;;;;;5013099;28;20219;-49
2022/03/10 06:24:13;;;;;;;24.17;12.65;;;;;;;;;;5013225;28;20176;-50
2022/03/10 06:26:39;;;;;;;28.70;12.13;;;;;;;;;;5013360;28;20173;-46
2022/03/10 06:29:07;;;;;;;27.98;13.50;;;;;;;;;;5013109;28;20958;-46
2022/03/10 06:31:33;;;;;;;30.58;12.95;;;;;;;;;;5013014;28;20276;-46
2022/03/10 06:33:59;;;;;;;25.90;13.30;;;;;;;;;;5012537;28;20267;-48
2022/03/10 06:36:26;;;;;;;20.80;11.43;;;;;;;;;;5012424;28;20403;-46
2022/03/10 06:38:52;;;;;;;26.17;13.90;;;;;;;;;;5012679;28;20423;-47
2022/03/10 06:41:18;;;;;;;32.83;13.88;;;;;;;;;;5012870;28;20195;-46
2022/03/10 06:43:44;;;;;;;39.17;17.40;;;;;;;;;;5012502;28;20173;-47
2022/03/10 06:46:10;;;;;;;51.15;20.92;;;;;;;;;;5012434;28;20936;-46
2022/03/10 06:48:37;;;;;;;39.67;16.50;;;;;;;;;;5012479;28;20231;-47
2022/03/10 06:51:04;;;;;;;50.83;19.35;;;;;;;;;;5012538;28;20184;-46
2022/03/10 06:53:30;;;;;;;42.08;19.42;;;;;;;;;;5012475;28;20708;-50
2022/03/10 06:55:56;;;;;;;43.73;22.43;;;;;;;;;;5012862;28;20441;-46
2022/03/10 06:58:22;;;;;;;29.00;12.83;;;;;;;;;;5012912;28;20895;-46
2022/03/10 07:00:48;;;;;;;24.02;12.73;;;;;;;;;;5012522;28;20435;-46
2022/03/10 07:03:14;;;;;;;19.02;12.02;;;;;;;;;;5012524;28;20208;-46
2022/03/10 07:05:40;;;;;;;22.40;11.10;;;;;;;;;;5012207;28;20173;-46
2022/03/10 07:08:07;;;;;;;18.47;11.73;;;;;;;;;;5012565;28;20769;-46
2022/03/10 07:10:33;;;;;;;18.97;11.77;;;;;;;;;;5012399;28;20488;-46
2022/03/10 07:12:59;;;;;;;18.40;11.33;;;;;;;;;;5012459;28;20399;-47
2022/03/10 07:15:25;;;;;;;19.10;12.10;;;;;;;;;;5012501;28;20404;-49
2022/03/10 07:17:51;;;;;;;20.30;11.10;;;;;;;;;;5012385;28;20462;-47
2022/03/10 07:20:18;;;;;;;23.57;14.03;;;;;;;;;;5012084;28;20511;-48
2022/03/10 07:22:45;;;;;;;21.13;12.83;;;;;;;;;;5012320;28;20436;-46
2022/03/10 07:25:11;;;;;;;23.63;12.30;;;;;;;;;;5012590;28;20404;-47
2022/03/10 07:27:38;;;;;;;23.87;12.00;;;;;;;;;;5012382;28;20408;-49
2022/03/10 07:30:04;;;;;;;28.80;13.00;;;;;;;;;;5011932;28;20456;-47
2022/03/10 07:32:30;;;;;;;20.70;12.13;;;;;;;;;;5012050;28;20426;-49
2022/03/10 07:34:56;;;;;;;19.87;11.73;;;;;;;;;;5012281;28;20887;-48
2022/03/10 07:37:22;;;;;;;21.87;12.97;;;;;;;;;;5012270;28;20401;-49
2022/03/10 07:39:48;;;;;;;19.80;12.17;;;;;;;;;;5011980;28;20983;-46
2022/03/10 07:42:15;;;;;;;20.73;11.90;;;;;;;;;;5012225;28;20889;-47
2022/03/10 07:44:41;;;;;;;19.83;11.73;;;;;;;;;;5012224;28;20838;-48
2022/03/10 07:47:07;;;;;;;22.17;13.00;;;;;;;;;;5010890;28;20502;-50
2022/03/10 07:49:33;;;;;;;18.37;12.90;;;;;;;;;;5011852;28;20463;-47
2022/03/10 07:52:00;;;;;;;16.77;10.90;;;;;;;;;;5010699;28;20814;-47
2022/03/10 07:54:26;;;;;;;20.93;12.60;;;;;;;;;;5012063;28;20382;-49
2022/03/10 07:56:52;;;;;;;25.80;13.80;;;;;;;;;;5012088;28;20807;-49
2022/03/10 07:59:18;;;;;;;25.87;13.07;;;;;;;;;;5011974;28;20381;-53
2022/03/10 08:01:44;;;;;;;26.37;13.53;;;;;;;;;;5018180;28;20431;-50
2022/03/10 08:04:10;;;;;;;18.43;12.43;;;;;;;;;;5012429;28;20656;-53
2022/03/10 08:06:36;;;;;;;18.50;12.83;;;;;;;;;;5010622;28;20448;-52
2022/03/10 08:09:02;;;;;;;27.23;13.10;;;;;;;;;;5011935;28;20446;-52
2022/03/10 08:11:28;;;;;;;22.23;11.73;;;;;;;;;;5011806;28;20847;-52
2022/03/10 08:13:54;;;;;;;22.20;13.23;;;;;;;;;;5011720;28;20431;-52
2022/03/10 08:16:20;;;;;;;21.70;12.90;;;;;;;;;;5011829;28;20396;-52
2022/03/10 08:18:49;;;;;;;21.93;13.10;;;;;;;;;;5014882;28;20461;-53
2022/03/10 08:21:15;;;;;;;19.27;13.40;;;;;;;;;;5015419;28;20474;-52
2022/03/10 08:23:41;;;;;;;20.77;12.60;;;;;;;;;;5016779;28;20439;-48
2022/03/10 08:26:08;;;;;;;24.77;12.40;;;;;;;;;;5016071;28;20406;-46
2022/03/10 08:28:34;;;;;;;21.63;13.10;;;;;;;;;;5015521;28;20450;-47
2022/03/10 08:31:04;;;;;;;19.13;12.70;;;;;;;;;;5015002;28;20681;-52
2022/03/10 08:33:30;;;;;;;31.20;16.00;;;;;;;;;;5015566;28;20462;-52
2022/03/10 08:35:55;;;;;;;23.07;14.27;;;;;;;;;;5015492;28;20482;-51
2022/03/10 08:38:21;;;;;;;22.67;13.97;;;;;;;;;;5015400;28;20399;-52
2022/03/10 08:40:48;;;;;;;22.90;14.80;;;;;;;;;;5015452;28;20550;-51
2022/03/10 08:43:15;;;;;;;22.93;14.73;;;;;;;;;;5015024;28;20430;-50
2022/03/10 08:45:41;;;;;;;28.83;14.37;;;;;;;;;;5015270;28;20417;-47
2022/03/10 08:48:07;;;;;;;21.83;13.27;;;;;;;;;;5015242;28;20402;-47
2022/03/10 08:50:33;;;;;;;20.57;13.77;;;;;;;;;;5014821;28;20447;-47
2022/03/10 08:52:59;;;;;;;22.27;14.30;;;;;;;;;;5015210;28;20750;-48
2022/03/10 08:55:25;;;;;;;23.37;14.13;;;;;;;;;;5015178;28;20374;-48
2022/03/10 08:57:51;;;;;;;23.20;13.93;;;;;;;;;;5014943;28;20376;-49
2022/03/10 09:00:20;;;;;;;19.60;13.23;;;;;;;;;;5014658;28;20410;-50
2022/03/10 09:02:46;;;;;;;26.23;15.97;;;;;;;;;;5014791;28;20423;-47
2022/03/10 09:05:13;;;;;;;21.57;14.10;;;;;;;;;;5014963;28;20452;-48
2022/03/10 09:07:40;;;;;;;18.63;13.00;;;;;;;;;;5014962;28;20378;-48
2022/03/10 09:10:06;;;;;;;25.33;15.17;;;;;;;;;;5015023;28;20468;-48
2022/03/10 09:12:32;;;;;;;24.17;14.37;;;;;;;;;;5014782;28;20407;-49
2022/03/10 09:14:59;;;;;;;24.63;14.07;;;;;;;;;;5014667;28;20414;-52
2022/03/10 09:17:25;;;;;;;25.27;15.57;;;;;;;;;;5014625;28;20407;-50
2022/03/10 09:19:50;;;;;;;27.60;15.20;;;;;;;;;;5014363;28;20407;-53
2022/03/10 09:22:17;;;;;;;24.87;15.13;;;;;;;;;;5014549;28;20779;-50
2022/03/10 09:24:43;;;;;;;23.80;14.83;;;;;;;;;;5014411;28;20403;-51
2022/03/10 09:27:09;;;;;;;18.73;14.50;;;;;;;;;;5014353;28;20415;-49
2022/03/10 09:29:36;;;;;;;22.13;14.90;;;;;;;;;;5013810;28;20819;-50
2022/03/10 09:32:02;;;;;;;19.67;15.10;;;;;;;;;;5014461;28;20409;-49
2022/03/10 09:34:28;;;;;;;20.93;15.30;;;;;;;;;;5014266;28;20895;-50
2022/03/10 09:36:54;;;;;;;22.23;15.13;;;;;;;;;;5013961;28;20410;-49
2022/03/10 09:39:20;;;;;;;21.20;14.53;;;;;;;;;;5014042;28;20414;-49
2022/03/10 09:41:46;;;;;;;21.40;16.23;;;;;;;;;;5013772;28;20500;-50
2022/03/10 09:44:17;;;;;;;21.43;15.30;;;;;;;;;;5014261;28;20895;-48
2022/03/10 09:46:44;;;;;;;18.87;14.23;;;;;;;;;;5014176;28;20541;-48
2022/03/10 09:49:10;;;;;;;20.30;15.03;;;;;;;;;;5013712;28;20455;-51
2022/03/10 09:51:36;;;;;;;27.17;19.27;;;;;;;;;;5013730;28;20429;-51
2022/03/10 09:54:02;;;;;;;22.50;13.30;;;;;;;;;;5013601;28;20396;-52
2022/03/10 09:56:28;;;;;;;28.27;16.43;;;;;;;;;;5013468;28;20410;-53
2022/03/10 09:58:54;;;;;;;21.00;15.40;;;;;;;;;;5013896;28;20917;-53
2022/03/10 10:01:20;;;;;;;20.60;15.20;;;;;;;;;;5013523;28;20903;-53
2022/03/10 10:03:46;;;;;;;26.90;15.53;;;;;;;;;;5013455;28;20423;-53
2022/03/10 10:06:12;;;;;;;22.53;15.17;;;;;;;;;;5013829;28;20402;-53
2022/03/10 10:08:41;;;;;;;20.73;16.13;;;;;;;;;;5013805;28;20458;-53
2022/03/10 10:11:07;;;;;;;20.50;14.50;;;;;;;;;;5013487;28;20431;-53
2022/03/10 10:13:34;;;;;;;21.40;15.03;;;;;;;;;;5013705;28;20999;-53
2022/03/10 10:16:02;;;;;;;24.20;16.57;;;;;;;;;;5013692;28;20410;-51
2022/03/10 10:18:28;;;;;;;25.00;16.00;;;;;;;;;;5013684;28;20402;-53
2022/03/10 10:20:56;;;;;;;20.87;15.47;;;;;;;;;;5013076;28;20430;-53
2022/03/10 10:23:24;;;;;;;23.97;15.83;;;;;;;;;;5012230;28;20405;-52
2022/03/10 10:25:54;;;;;;;20.70;15.63;;;;;;;;;;5013468;28;20398;-54
2022/03/10 10:28:40;;;;;;;20.37;15.33;;;;;;;;;;5013057;28;20402;-53
2022/03/10 10:31:07;;;;;;;21.63;15.90;;;;;;;;;;5012892;28;20426;-53
2022/03/10 10:33:34;;;;;;;22.23;14.43;;;;;;;;;;5013025;28;20788;-53
2022/03/10 10:36:12;;;;;;;25.23;17.10;;;;;;;;;;5013120;28;20411;-52
2022/03/10 10:38:39;;;;;;;21.57;15.37;;;;;;;;;;5013218;28;20393;-51
2022/03/10 10:41:17;;;;;;;22.27;14.43;;;;;;;;;;5010558;28;20430;-53
2022/03/10 10:43:46;;;;;;;19.50;15.00;;;;;;;;;;5012503;28;20403;-52
2022/03/10 10:46:26;;;;;;;20.90;13.77;;;;;;;;;;5012743;28;20501;-52
2022/03/10 10:48:52;;;;;;;19.50;14.50;;;;;;;;;;5012791;28;20494;-53
2022/03/10 10:51:29;;;;;;;22.40;14.57;;;;;;;;;;5012545;28;20423;-52
2022/03/10 10:53:55;;;;;;;19.73;14.93;;;;;;;;;;5013026;28;20834;-53
2022/03/10 10:56:21;;;;;;;22.80;15.03;;;;;;;;;;5012650;28;20404;-53
2022/03/10 10:58:47;;;;;;;20.37;14.53;;;;;;;;;;5012643;28;20406;-53
2022/03/10 11:01:31;;;;;;;23.57;13.57;;;;;;;;;;5012358;28;20446;-53
2022/03/10 11:03:57;;;;;;;19.57;11.97;;;;;;;;;;5012563;28;20486;-53
2022/03/10 11:06:25;;;;;;;21.97;13.07;;;;;;;;;;5012903;28;20427;-53
2022/03/10 11:08:51;;;;;;;18.80;12.53;;;;;;;;;;5012760;28;20451;-52
2022/03/10 11:11:18;;;;;;;18.20;12.57;;;;;;;;;;5012142;28;20436;-53
2022/03/10 11:13:44;;;;;;;17.13;11.40;;;;;;;;;;5012898;28;20752;-52
2022/03/10 11:16:11;;;;;;;15.23;11.30;;;;;;;;;;5012472;28;20899;-52
2022/03/10 11:18:40;;;;;;;19.03;13.47;;;;;;;;;;5012676;28;20751;-53
2022/03/10 11:21:12;;;;;;;15.00;12.13;;;;;;;;;;5012279;28;20433;-52
2022/03/10 11:23:54;;;;;;;19.07;12.00;;;;;;;;;;5012406;28;20418;-53
2022/03/10 11:26:37;;;;;;;16.43;12.43;;;;;;;;;;5012595;28;20395;-53
2022/03/10 11:29:04;;;;;;;14.70;11.37;;;;;;;;;;5012274;28;20824;-52
2022/03/10 11:31:32;;;;;;;16.87;12.83;;;;;;;;;;5012183;28;20434;-52
2022/03/10 11:33:58;;;;;;;15.47;11.23;;;;;;;;;;5012460;28;20546;-53
2022/03/10 11:36:29;;;;;;;16.53;11.80;;;;;;;;;;5012059;28;20402;-52
2022/03/10 11:38:55;;;;;;;13.17;11.67;;;;;;;;;;5012176;28;20906;-53
2022/03/10 11:41:25;;;;;;;15.27;11.40;;;;;;;;;;5012054;28;20425;-53
2022/03/10 11:44:10;;;;;;;16.77;10.50;;;;;;;;;;5012156;28;20738;-53
2022/03/10 11:46:50;;;;;;;15.10;10.90;;;;;;;;;;5012266;28;20962;-53
2022/03/10 11:49:16;;;;;;;11.90;10.00;;;;;;;;;;5012289;28;20458;-53
2022/03/10 11:51:51;;;;;;;14.20;10.80;;;;;;;;;;5013446;28;20424;-53
2022/03/10 11:54:21;;;;;;;12.50;10.87;;;;;;;;;;5016514;28;20404;-52
2022/03/10 11:56:47;;;;;;;14.10;9.87;;;;;;;;;;5016339;28;20398;-52
2022/03/10 11:59:22;;;;;;;14.37;8.70;;;;;;;;;;5015877;28;20414;-51
2022/03/10 12:01:48;;;;;;;10.97;8.00;;;;;;;;;;5016094;28;20426;-52
2022/03/10 12:04:18;;;;;;;9.30;8.00;;;;;;;;;;5016112;28;20437;-51
2022/03/10 12:06:48;;;;;;;9.93;8.90;;;;;;;;;;5015973;28;20469;-53
2022/03/10 12:09:25;;;;;;;8.83;7.57;;;;;;;;;;5015707;28;20538;-51
2022/03/10 12:11:52;;;;;;;9.00;7.33;;;;;;;;;;5016467;28;20447;-51
2022/03/10 12:14:28;;;;;;;8.73;7.27;;;;;;;;;;5015779;28;20399;-53
2022/03/10 12:16:54;;;;;;;8.83;7.10;;;;;;;;;;5016370;28;20430;-53
2022/03/10 12:19:40;;;;;;;7.27;6.53;;;;;;;;;;5016189;28;20421;-53
2022/03/10 12:22:09;;;;;;;7.73;6.60;;;;;;;;;;5015269;28;20739;-52
2022/03/10 12:24:36;;;;;;;7.07;5.80;;;;;;;;;;5016329;28;20379;-49
2022/03/10 12:27:02;;;;;;;6.37;5.40;;;;;;;;;;5015389;28;20771;-49
2022/03/10 12:29:31;;;;;;;5.97;5.37;;;;;;;;;;5014783;28;20442;-50
2022/03/10 12:32:04;;;;;;;5.80;5.30;;;;;;;;;;5015080;28;20429;-48
2022/03/10 12:34:30;;;;;;;6.47;5.03;;;;;;;;;;5015381;28;20398;-49
2022/03/10 12:36:59;;;;;;;6.03;5.43;;;;;;;;;;5015074;28;20411;-48
2022/03/10 12:39:30;;;;;;;7.03;5.83;;;;;;;;;;5015040;28;20781;-48
2022/03/10 12:42:04;;;;;;;6.70;6.00;;;;;;;;;;5015730;28;20998;-50
2022/03/10 12:44:31;;;;;;;7.97;5.77;;;;;;;;;;5015252;28;20405;-52
2022/03/10 12:46:58;;;;;;;7.53;6.30;;;;;;;;;;5015047;28;20906;-52
2022/03/10 12:49:24;;;;;;;5.23;4.73;;;;;;;;;;5015262;28;20454;-51
2022/03/10 12:51:51;;;;;;;5.00;4.47;;;;;;;;;;5014310;28;20431;-52
2022/03/10 12:54:20;;;;;;;5.13;4.63;;;;;;;;;;5014984;28;20426;-51
2022/03/10 12:56:46;;;;;;;5.50;5.00;;;;;;;;;;5015276;28;20493;-51
2022/03/10 12:59:12;;;;;;;4.90;3.90;;;;;;;;;;5014874;28;20403;-51
2022/03/10 13:01:39;;;;;;;5.00;4.57;;;;;;;;;;5014730;28;20847;-50
2022/03/10 13:04:11;;;;;;;5.57;5.07;;;;;;;;;;5013913;28;20470;-50
2022/03/10 13:06:38;;;;;;;7.87;4.50;;;;;;;;;;5013905;28;20513;-50
2022/03/10 13:09:04;;;;;;;4.20;3.80;;;;;;;;;;5014621;28;20446;-50
2022/03/10 13:11:31;;;;;;;4.80;4.43;;;;;;;;;;5014473;28;20853;-49
2022/03/10 13:14:16;;;;;;;6.47;5.23;;;;;;;;;;5014682;28;20412;-50
2022/03/10 13:16:44;;;;;;;5.90;5.13;;;;;;;;;;5014584;28;20415;-48
2022/03/10 13:19:32;;;;;;;8.50;4.50;;;;;;;;;;5014463;28;20407;-57
2022/03/10 13:22:02;;;;;;;4.77;4.37;;;;;;;;;;5014304;28;20806;-49
2022/03/10 13:24:34;;;;;;;5.80;4.20;;;;;;;;;;5014407;28;20410;-49
2022/03/10 13:27:01;;;;;;;6.57;5.03;;;;;;;;;;5014456;28;20962;-49
2022/03/10 13:29:27;;;;;;;6.70;5.80;;;;;;;;;;5013847;28;20466;-48
2022/03/10 13:31:53;;;;;;;8.97;6.33;;;;;;;;;;5013978;28;20804;-49
2022/03/10 13:34:20;;;;;;;9.50;6.10;;;;;;;;;;5013850;28;20962;-49
2022/03/10 13:36:47;;;;;;;14.03;6.37;;;;;;;;;;4996486;28;20801;-48
2022/03/10 13:39:13;;;;;;;6.93;6.23;;;;;;;;;;5013806;28;20475;-52
2022/03/10 13:41:39;;;;;;;10.57;6.40;;;;;;;;;;5014757;28;20434;-48
2022/03/10 13:44:15;;;;;;;19.47;6.70;;;;;;;;;;5012963;28;20403;-49
2022/03/10 13:46:41;;;;;;;8.10;6.13;;;;;;;;;;5013752;28;20422;-48
2022/03/10 13:49:27;;;;;;;6.40;5.80;;;;;;;;;;5012909;28;20533;-49
2022/03/10 13:51:53;;;;;;;5.43;4.67;;;;;;;;;;5013606;28;20872;-48
2022/03/10 13:54:19;;;;;;;6.53;5.33;;;;;;;;;;5014252;28;20431;-49
2022/03/10 13:56:48;;;;;;;6.13;5.23;;;;;;;;;;5013863;28;20407;-49
2022/03/10 13:59:15;;;;;;;5.40;4.90;;;;;;;;;;5013645;28;20884;-48
2022/03/10 14:01:42;;;;;;;5.87;5.10;;;;;;;;;;5013428;28;20463;-49
2022/03/10 14:04:09;;;;;;;5.30;4.80;;;;;;;;;;5013485;28;20441;-49
2022/03/10 14:06:45;;;;;;;4.87;4.33;;;;;;;;;;5013708;28;20954;-49
2022/03/10 14:09:18;;;;;;;3.97;3.67;;;;;;;;;;5013520;28;20457;-49
2022/03/10 14:11:44;;;;;;;6.17;4.07;;;;;;;;;;5013434;28;20415;-52
2022/03/10 14:14:10;;;;;;;4.90;3.93;;;;;;;;;;5013273;28;20457;-50
2022/03/10 14:16:36;;;;;;;4.53;4.10;;;;;;;;;;5012532;28;20407;-51
2022/03/10 14:19:02;;;;;;;4.73;4.30;;;;;;;;;;5013484;28;20407;-49
2022/03/10 14:21:29;;;;;;;4.53;4.23;;;;;;;;;;5013283;28;20558;-49
2022/03/10 14:23:59;;;;;;;4.50;4.07;;;;;;;;;;5013452;28;20431;-48
2022/03/10 14:26:25;;;;;;;4.50;4.07;;;;;;;;;;5013048;28;20411;-52
2022/03/10 14:28:54;;;;;;;4.47;3.87;;;;;;;;;;5013267;28;20449;-51
2022/03/10 14:31:23;;;;;;;6.40;4.33;;;;;;;;;;5012889;28;20421;-51